sensor_id;sensor_type;location;lat;lon;timestamp;pressure;altitude;pressure_sealevel;temperature;humidity
45888;BME280;31595;51.418;7.572;2023-02-18T00:01:36;100853.75;;;12.99;71.02
45888;BME280;31595;51.418;7.572;2023-02-18T00:04:05;100853.75;;;12.99;70.38
45888;BME280;31595;51.418;7.572;2023-02-18T00:06:34;100853.75;;;12.99;70.65
45888;BME280;31595;51.418;7.572;2023-02-18T00:09:03;100843.03;;;12.93;71.34
45888;BME280;31595;51.418;7.572;2023-02-18T00:11:33;100852.13;;;12.98;71.44
45888;BME280;31595;51.418;7.572;2023-02-18T00:14:01;100861.81;;;12.92;70.59
45888;BME280;31595;51.418;7.572;2023-02-18T00:16:29;100846.16;;;12.91;71.16
45888;BME280;31595;51.418;7.572;2023-02-18T00:18:58;100863.44;;;12.93;70.67
45888;BME280;31595;51.418;7.572;2023-02-18T00:21:27;100852.41;;;12.88;71.73
45888;BME280;31595;51.418;7.572;2023-02-18T00:24:00;100856.72;;;12.94;71.60
45888;BME280;31595;51.418;7.572;2023-02-18T00:26:28;100860.44;;;12.81;72.46
45888;BME280;31595;51.418;7.572;2023-02-18T00:28:55;100858.81;;;12.89;71.69
45888;BME280;31595;51.418;7.572;2023-02-18T00:31:25;100857.03;;;12.93;72.03
45888;BME280;31595;51.418;7.572;2023-02-18T00:33:53;100851.75;;;12.91;72.25
45888;BME280;31595;51.418;7.572;2023-02-18T00:36:22;100848.16;;;12.99;71.71
45888;BME280;31595;51.418;7.572;2023-02-18T00:38:54;100858.53;;;12.99;71.68
45888;BME280;31595;51.418;7.572;2023-02-18T00:41:22;100851.38;;;12.84;71.66
45888;BME280;31595;51.418;7.572;2023-02-18T00:43:50;100842.88;;;12.89;71.69
45888;BME280;31595;51.418;7.572;2023-02-18T00:46:17;100832.97;;;12.83;72.17
45888;BME280;31595;51.418;7.572;2023-02-18T00:48:45;100823.09;;;12.77;73.00
45888;BME280;31595;51.418;7.572;2023-02-18T00:51:12;100818.16;;;12.83;72.81
45888;BME280;31595;51.418;7.572;2023-02-18T00:53:40;100824.09;;;12.81;72.67
45888;BME280;31595;51.418;7.572;2023-02-18T00:56:09;100813.06;;;12.85;72.47
45888;BME280;31595;51.418;7.572;2023-02-18T00:58:36;100821.66;;;12.88;72.36
45888;BME280;31595;51.418;7.572;2023-02-18T01:01:05;100809.97;;;12.86;72.78
45888;BME280;31595;51.418;7.572;2023-02-18T01:03:37;100815.56;;;12.86;72.84
45888;BME280;31595;51.418;7.572;2023-02-18T01:06:06;100831.69;;;12.89;73.49
45888;BME280;31595;51.418;7.572;2023-02-18T01:08:34;100809.34;;;12.89;73.80
45888;BME280;31595;51.418;7.572;2023-02-18T01:11:03;100806.03;;;12.87;74.14
45888;BME280;31595;51.418;7.572;2023-02-18T01:13:32;100814.41;;;12.87;73.63
45888;BME280;31595;51.418;7.572;2023-02-18T01:16:00;100806.31;;;12.77;73.30
45888;BME280;31595;51.418;7.572;2023-02-18T01:18:27;100814.69;;;12.77;74.21
45888;BME280;31595;51.418;7.572;2023-02-18T01:20:54;100818.00;;;12.79;73.94
45888;BME280;31595;51.418;7.572;2023-02-18T01:23:22;100810.44;;;12.79;74.69
45888;BME280;31595;51.418;7.572;2023-02-18T01:25:50;100814.00;;;12.71;75.22
45888;BME280;31595;51.418;7.572;2023-02-18T01:28:18;100815.97;;;12.71;74.56
45888;BME280;31595;51.418;7.572;2023-02-18T01:30:50;100818.13;;;12.74;74.16
45888;BME280;31595;51.418;7.572;2023-02-18T01:33:18;100804.97;;;12.74;74.02
45888;BME280;31595;51.418;7.572;2023-02-18T01:35:45;100814.00;;;12.71;74.79
45888;BME280;31595;51.418;7.572;2023-02-18T01:38:13;100800.72;;;12.77;75.09
45888;BME280;31595;51.418;7.572;2023-02-18T01:40:45;100805.75;;;12.66;74.79
45888;BME280;31595;51.418;7.572;2023-02-18T01:43:13;100796.22;;;12.67;74.51
45888;BME280;31595;51.418;7.572;2023-02-18T01:46:06;100795.41;;;12.67;74.91
45888;BME280;31595;51.418;7.572;2023-02-18T01:48:37;100792.28;;;12.68;74.84
45888;BME280;31595;51.418;7.572;2023-02-18T01:51:09;100789.97;;;12.70;74.99
45888;BME280;31595;51.418;7.572;2023-02-18T01:53:44;100783.22;;;12.63;74.97
45888;BME280;31595;51.418;7.572;2023-02-18T01:56:18;100785.00;;;12.58;74.63
45888;BME280;31595;51.418;7.572;2023-02-18T01:58:47;100775.22;;;12.47;75.71
45888;BME280;31595;51.418;7.572;2023-02-18T02:01:19;100778.88;;;12.48;75.71
45888;BME280;31595;51.418;7.572;2023-02-18T02:03:49;100786.63;;;12.59;75.53
45888;BME280;31595;51.418;7.572;2023-02-18T02:06:18;100794.72;;;12.61;75.35
45888;BME280;31595;51.418;7.572;2023-02-18T02:08:47;100788.81;;;12.63;75.16
45888;BME280;31595;51.418;7.572;2023-02-18T02:11:22;100778.59;;;12.58;75.07
45888;BME280;31595;51.418;7.572;2023-02-18T02:14:01;100790.09;;;12.56;75.28
45888;BME280;31595;51.418;7.572;2023-02-18T02:16:40;100788.91;;;12.57;75.42
45888;BME280;31595;51.418;7.572;2023-02-18T02:19:28;100790.72;;;12.53;75.00
45888;BME280;31595;51.418;7.572;2023-02-18T02:25:22;100781.69;;;12.56;74.98
45888;BME280;31595;51.418;7.572;2023-02-18T02:31:29;100776.22;;;12.51;75.50
45888;BME280;31595;51.418;7.572;2023-02-18T02:34:29;100777.91;;;12.52;74.79
45888;BME280;31595;51.418;7.572;2023-02-18T02:37:02;100765.44;;;12.58;74.56
45888;BME280;31595;51.418;7.572;2023-02-18T02:39:39;100759.31;;;12.48;74.83
45888;BME280;31595;51.418;7.572;2023-02-18T02:42:25;100758.81;;;12.46;74.59
45888;BME280;31595;51.418;7.572;2023-02-18T02:44:59;100749.53;;;12.36;73.98
45888;BME280;31595;51.418;7.572;2023-02-18T02:47:39;100759.75;;;12.41;74.80
45888;BME280;31595;51.418;7.572;2023-02-18T02:50:14;100746.09;;;12.39;74.56
45888;BME280;31595;51.418;7.572;2023-02-18T02:52:50;100742.84;;;12.46;74.27
45888;BME280;31595;51.418;7.572;2023-02-18T02:55:21;100744.38;;;12.52;73.70
45888;BME280;31595;51.418;7.572;2023-02-18T02:57:50;100751.78;;;12.57;73.85
45888;BME280;31595;51.418;7.572;2023-02-18T03:00:22;100745.22;;;12.62;74.00
45888;BME280;31595;51.418;7.572;2023-02-18T03:03:08;100744.09;;;12.63;73.42
45888;BME280;31595;51.418;7.572;2023-02-18T03:05:54;100744.91;;;12.63;73.27
45888;BME280;31595;51.418;7.572;2023-02-18T03:08:40;100722.75;;;12.67;72.57
45888;BME280;31595;51.418;7.572;2023-02-18T03:11:13;100723.06;;;12.65;73.05
45888;BME280;31595;51.418;7.572;2023-02-18T03:13:55;100724.03;;;12.61;72.93
45888;BME280;31595;51.418;7.572;2023-02-18T03:16:33;100714.97;;;12.64;73.33
45888;BME280;31595;51.418;7.572;2023-02-18T03:19:09;100709.38;;;12.55;72.75
45888;BME280;31595;51.418;7.572;2023-02-18T03:21:42;100709.56;;;12.58;72.97
45888;BME280;31595;51.418;7.572;2023-02-18T03:24:14;100691.31;;;12.61;73.35
45888;BME280;31595;51.418;7.572;2023-02-18T03:26:46;100684.59;;;12.62;73.37
45888;BME280;31595;51.418;7.572;2023-02-18T03:29:16;100677.31;;;12.52;72.85
45888;BME280;31595;51.418;7.572;2023-02-18T03:31:48;100678.94;;;12.53;73.54
45888;BME280;31595;51.418;7.572;2023-02-18T03:34:21;100679.59;;;12.50;73.59
45888;BME280;31595;51.418;7.572;2023-02-18T03:36:53;100664.63;;;12.46;73.56
45888;BME280;31595;51.418;7.572;2023-02-18T03:39:22;100663.63;;;12.42;74.14
45888;BME280;31595;51.418;7.572;2023-02-18T03:41:51;100673.00;;;12.46;74.11
45888;BME280;31595;51.418;7.572;2023-02-18T03:44:19;100652.28;;;12.47;74.46
45888;BME280;31595;51.418;7.572;2023-02-18T03:46:46;100663.63;;;12.42;74.95
45888;BME280;31595;51.418;7.572;2023-02-18T03:49:14;100650.13;;;12.35;75.12
45888;BME280;31595;51.418;7.572;2023-02-18T03:51:42;100646.00;;;12.33;75.80
45888;BME280;31595;51.418;7.572;2023-02-18T03:54:11;100656.84;;;12.34;76.14
45888;BME280;31595;51.418;7.572;2023-02-18T03:56:40;100649.25;;;12.26;76.08
45888;BME280;31595;51.418;7.572;2023-02-18T03:59:07;100646.78;;;12.25;76.32
45888;BME280;31595;51.418;7.572;2023-02-18T04:01:34;100638.03;;;12.17;76.22
45888;BME280;31595;51.418;7.572;2023-02-18T04:04:01;100639.03;;;12.22;76.59
45888;BME280;31595;51.418;7.572;2023-02-18T04:06:29;100645.28;;;12.18;76.61
45888;BME280;31595;51.418;7.572;2023-02-18T04:08:56;100644.31;;;12.23;76.29
45888;BME280;31595;51.418;7.572;2023-02-18T04:11:25;100641.03;;;12.21;76.54
45888;BME280;31595;51.418;7.572;2023-02-18T04:13:52;100635.91;;;12.14;77.07
45888;BME280;31595;51.418;7.572;2023-02-18T04:16:19;100630.28;;;12.06;77.71
45888;BME280;31595;51.418;7.572;2023-02-18T04:18:46;100634.75;;;12.15;77.69
45888;BME280;31595;51.418;7.572;2023-02-18T04:21:14;100633.47;;;12.22;77.69
45888;BME280;31595;51.418;7.572;2023-02-18T04:23:41;100637.72;;;12.19;77.38
45888;BME280;31595;51.418;7.572;2023-02-18T04:26:08;100627.06;;;12.21;77.28
45888;BME280;31595;51.418;7.572;2023-02-18T04:28:37;100618.38;;;12.23;76.72
45888;BME280;31595;51.418;7.572;2023-02-18T04:31:04;100621.00;;;12.28;77.01
45888;BME280;31595;51.418;7.572;2023-02-18T04:33:31;100612.78;;;12.23;76.83
45888;BME280;31595;51.418;7.572;2023-02-18T04:35:58;100622.78;;;12.24;76.76
45888;BME280;31595;51.418;7.572;2023-02-18T04:38:26;100616.88;;;12.25;76.88
45888;BME280;31595;51.418;7.572;2023-02-18T04:40:53;100609.00;;;12.27;76.91
45888;BME280;31595;51.418;7.572;2023-02-18T04:43:20;100608.69;;;12.29;77.11
45888;BME280;31595;51.418;7.572;2023-02-18T04:45:49;100598.84;;;12.31;76.43
45888;BME280;31595;51.418;7.572;2023-02-18T04:48:17;100591.44;;;12.27;76.55
45888;BME280;31595;51.418;7.572;2023-02-18T04:50:44;100590.66;;;12.35;76.26
45888;BME280;31595;51.418;7.572;2023-02-18T04:53:11;100573.03;;;12.26;76.09
45888;BME280;31595;51.418;7.572;2023-02-18T04:55:38;100598.13;;;12.17;76.25
45888;BME280;31595;51.418;7.572;2023-02-18T04:58:06;100578.78;;;12.21;76.17
45888;BME280;31595;51.418;7.572;2023-02-18T05:00:34;100574.97;;;12.16;76.39
45888;BME280;31595;51.418;7.572;2023-02-18T05:03:03;100576.97;;;12.25;76.64
45888;BME280;31595;51.418;7.572;2023-02-18T05:05:30;100574.69;;;12.27;76.23
45888;BME280;31595;51.418;7.572;2023-02-18T05:07:58;100572.81;;;12.13;77.18
45888;BME280;31595;51.418;7.572;2023-02-18T05:10:25;100572.69;;;12.18;77.72
45888;BME280;31595;51.418;7.572;2023-02-18T05:12:52;100573.81;;;12.17;77.81
45888;BME280;31595;51.418;7.572;2023-02-18T05:15:19;100557.56;;;12.19;78.20
45888;BME280;31595;51.418;7.572;2023-02-18T05:17:47;100562.50;;;12.23;77.83
45888;BME280;31595;51.418;7.572;2023-02-18T05:20:18;100564.50;;;12.22;78.26
45888;BME280;31595;51.418;7.572;2023-02-18T05:22:45;100562.13;;;12.15;78.36
45888;BME280;31595;51.418;7.572;2023-02-18T05:25:12;100560.31;;;12.11;78.57
45888;BME280;31595;51.418;7.572;2023-02-18T05:27:39;100555.22;;;12.04;78.88
45888;BME280;31595;51.418;7.572;2023-02-18T05:30:07;100556.53;;;12.07;78.81
45888;BME280;31595;51.418;7.572;2023-02-18T05:32:35;100543.69;;;11.97;79.04
45888;BME280;31595;51.418;7.572;2023-02-18T05:35:02;100544.31;;;11.94;79.29
45888;BME280;31595;51.418;7.572;2023-02-18T05:37:31;100541.22;;;11.95;79.28
45888;BME280;31595;51.418;7.572;2023-02-18T05:39:58;100541.06;;;12.01;79.38
45888;BME280;31595;51.418;7.572;2023-02-18T05:42:25;100540.56;;;11.98;78.72
45888;BME280;31595;51.418;7.572;2023-02-18T05:44:52;100530.25;;;11.99;78.57
45888;BME280;31595;51.418;7.572;2023-02-18T05:47:20;100538.13;;;11.97;79.12
45888;BME280;31595;51.418;7.572;2023-02-18T05:49:47;100522.38;;;12.01;78.45
45888;BME280;31595;51.418;7.572;2023-02-18T05:52:16;100517.59;;;12.02;78.23
45888;BME280;31595;51.418;7.572;2023-02-18T05:54:45;100514.47;;;12.03;77.99
45888;BME280;31595;51.418;7.572;2023-02-18T05:57:12;100505.78;;;12.05;78.24
45888;BME280;31595;51.418;7.572;2023-02-18T05:59:40;100495.25;;;12.02;77.92
45888;BME280;31595;51.418;7.572;2023-02-18T06:02:08;100490.50;;;12.02;78.14
45888;BME280;31595;51.418;7.572;2023-02-18T06:04:35;100491.78;;;11.96;78.18
45888;BME280;31595;51.418;7.572;2023-02-18T06:07:02;100492.56;;;11.88;78.08
45888;BME280;31595;51.418;7.572;2023-02-18T06:09:30;100482.28;;;11.97;78.06
45888;BME280;31595;51.418;7.572;2023-02-18T06:11:58;100491.72;;;11.87;77.88
45888;BME280;31595;51.418;7.572;2023-02-18T06:14:25;100487.25;;;11.77;78.17
45888;BME280;31595;51.418;7.572;2023-02-18T06:16:53;100484.75;;;11.67;78.71
45888;BME280;31595;51.418;7.572;2023-02-18T06:19:20;100485.16;;;11.83;78.71
45888;BME280;31595;51.418;7.572;2023-02-18T06:21:47;100481.53;;;11.83;78.48
45888;BME280;31595;51.418;7.572;2023-02-18T06:24:14;100477.50;;;11.89;78.46
45888;BME280;31595;51.418;7.572;2023-02-18T06:26:42;100479.25;;;11.85;78.84
45888;BME280;31595;51.418;7.572;2023-02-18T06:29:10;100463.31;;;11.76;79.20
45888;BME280;31595;51.418;7.572;2023-02-18T06:31:38;100465.78;;;11.78;79.09
45888;BME280;31595;51.418;7.572;2023-02-18T06:34:05;100458.06;;;11.84;78.91
45888;BME280;31595;51.418;7.572;2023-02-18T06:36:32;100455.25;;;11.84;79.26
45888;BME280;31595;51.418;7.572;2023-02-18T06:39:02;100468.19;;;11.71;79.54
45888;BME280;31595;51.418;7.572;2023-02-18T06:41:29;100467.09;;;11.81;79.22
45888;BME280;31595;51.418;7.572;2023-02-18T06:43:56;100465.09;;;11.72;79.45
45888;BME280;31595;51.418;7.572;2023-02-18T06:46:25;100460.00;;;11.74;79.73
45888;BME280;31595;51.418;7.572;2023-02-18T06:48:52;100475.44;;;11.72;80.08
45888;BME280;31595;51.418;7.572;2023-02-18T06:51:19;100472.00;;;11.84;79.98
45888;BME280;31595;51.418;7.572;2023-02-18T06:53:46;100469.97;;;11.67;80.34
45888;BME280;31595;51.418;7.572;2023-02-18T06:56:14;100473.59;;;11.67;80.61
45888;BME280;31595;51.418;7.572;2023-02-18T06:58:41;100472.31;;;11.73;80.43
45888;BME280;31595;51.418;7.572;2023-02-18T07:01:08;100469.38;;;11.78;80.20
45888;BME280;31595;51.418;7.572;2023-02-18T07:03:37;100469.06;;;11.80;80.40
45888;BME280;31595;51.418;7.572;2023-02-18T07:06:04;100472.69;;;11.81;80.34
45888;BME280;31595;51.418;7.572;2023-02-18T07:08:32;100475.78;;;11.79;80.15
45888;BME280;31595;51.418;7.572;2023-02-18T07:11:01;100464.94;;;11.86;79.75
45888;BME280;31595;51.418;7.572;2023-02-18T07:13:28;100465.94;;;11.82;79.19
45888;BME280;31595;51.418;7.572;2023-02-18T07:15:55;100468.56;;;11.78;79.51
45888;BME280;31595;51.418;7.572;2023-02-18T07:18:22;100479.25;;;11.85;79.15
45888;BME280;31595;51.418;7.572;2023-02-18T07:20:51;100482.03;;;11.85;79.13
45888;BME280;31595;51.418;7.572;2023-02-18T07:23:18;100463.63;;;11.84;79.33
45888;BME280;31595;51.418;7.572;2023-02-18T07:25:45;100476.84;;;11.92;79.12
45888;BME280;31595;51.418;7.572;2023-02-18T07:28:13;100463.19;;;11.90;78.52
45888;BME280;31595;51.418;7.572;2023-02-18T07:30:40;100466.84;;;11.91;78.68
45888;BME280;31595;51.418;7.572;2023-02-18T07:33:07;100477.34;;;11.94;78.71
45888;BME280;31595;51.418;7.572;2023-02-18T07:35:34;100485.88;;;11.89;78.29
45888;BME280;31595;51.418;7.572;2023-02-18T07:38:03;100482.53;;;11.87;78.40
45888;BME280;31595;51.418;7.572;2023-02-18T07:40:30;100486.38;;;11.91;77.88
45888;BME280;31595;51.418;7.572;2023-02-18T07:42:57;100522.25;;;11.84;77.72
45888;BME280;31595;51.418;7.572;2023-02-18T07:45:25;100500.84;;;11.70;77.87
45888;BME280;31595;51.418;7.572;2023-02-18T07:47:52;100500.06;;;11.78;78.24
45888;BME280;31595;51.418;7.572;2023-02-18T07:50:19;100509.28;;;11.88;77.99
45888;BME280;31595;51.418;7.572;2023-02-18T07:52:46;100499.81;;;11.89;77.69
45888;BME280;31595;51.418;7.572;2023-02-18T07:55:15;100494.09;;;11.94;77.54
45888;BME280;31595;51.418;7.572;2023-02-18T07:57:42;100499.28;;;11.87;77.50
45888;BME280;31595;51.418;7.572;2023-02-18T08:00:25;100511.75;;;11.81;77.57
45888;BME280;31595;51.418;7.572;2023-02-18T08:02:52;100509.56;;;11.77;77.58
45888;BME280;31595;51.418;7.572;2023-02-18T08:05:19;100513.22;;;11.78;77.53
45888;BME280;31595;51.418;7.572;2023-02-18T08:07:47;100505.97;;;11.77;77.40
45888;BME280;31595;51.418;7.572;2023-02-18T08:10:15;100511.09;;;11.84;77.13
45888;BME280;31595;51.418;7.572;2023-02-18T08:12:42;100509.81;;;11.90;76.80
45888;BME280;31595;51.418;7.572;2023-02-18T08:15:13;100516.59;;;11.97;75.86
45888;BME280;31595;51.418;7.572;2023-02-18T08:17:40;100539.75;;;11.98;75.74
45888;BME280;31595;51.418;7.572;2023-02-18T08:20:08;100514.94;;;11.96;74.77
45888;BME280;31595;51.418;7.572;2023-02-18T08:22:35;100532.03;;;11.95;74.27
45888;BME280;31595;51.418;7.572;2023-02-18T08:25:03;100515.94;;;12.01;74.45
45888;BME280;31595;51.418;7.572;2023-02-18T08:27:32;100524.00;;;12.02;73.76
45888;BME280;31595;51.418;7.572;2023-02-18T08:29:59;100529.78;;;12.06;73.61
45888;BME280;31595;51.418;7.572;2023-02-18T08:32:27;100533.06;;;12.08;73.61
45888;BME280;31595;51.418;7.572;2023-02-18T08:34:55;100524.41;;;12.27;72.83
45888;BME280;31595;51.418;7.572;2023-02-18T08:37:22;100532.63;;;12.32;72.73
45888;BME280;31595;51.418;7.572;2023-02-18T08:39:50;100522.91;;;12.21;72.90
45888;BME280;31595;51.418;7.572;2023-02-18T08:42:18;100530.00;;;12.27;72.96
45888;BME280;31595;51.418;7.572;2023-02-18T08:44:57;100543.16;;;12.35;73.07
45888;BME280;31595;51.418;7.572;2023-02-18T08:47:24;100538.41;;;12.44;72.14
45888;BME280;31595;51.418;7.572;2023-02-18T08:49:52;100559.56;;;12.28;71.67
45888;BME280;31595;51.418;7.572;2023-02-18T08:52:19;100534.44;;;12.36;72.22
45888;BME280;31595;51.418;7.572;2023-02-18T08:54:49;100541.00;;;12.32;72.43
45888;BME280;31595;51.418;7.572;2023-02-18T08:57:17;100532.78;;;12.18;72.91
45888;BME280;31595;51.418;7.572;2023-02-18T08:59:44;100525.72;;;12.21;72.63
45888;BME280;31595;51.418;7.572;2023-02-18T09:02:13;100536.22;;;12.24;71.68
45888;BME280;31595;51.418;7.572;2023-02-18T09:04:41;100541.59;;;12.11;71.51
45888;BME280;31595;51.418;7.572;2023-02-18T09:07:08;100523.50;;;12.00;70.53
45888;BME280;31595;51.418;7.572;2023-02-18T09:09:35;100523.53;;;12.09;70.22
45888;BME280;31595;51.418;7.572;2023-02-18T09:12:03;100516.47;;;12.11;69.62
45888;BME280;31595;51.418;7.572;2023-02-18T09:14:30;100526.63;;;12.07;68.43
45888;BME280;31595;51.418;7.572;2023-02-18T09:16:57;100521.53;;;12.09;68.19
45888;BME280;31595;51.418;7.572;2023-02-18T09:19:26;100519.31;;;12.20;67.90
45888;BME280;31595;51.418;7.572;2023-02-18T09:21:53;100505.50;;;12.32;68.05
45888;BME280;31595;51.418;7.572;2023-02-18T09:24:22;100523.13;;;12.33;66.76
45888;BME280;31595;51.418;7.572;2023-02-18T09:26:50;100499.28;;;12.27;67.05
45888;BME280;31595;51.418;7.572;2023-02-18T09:29:17;100508.28;;;12.24;66.83
45888;BME280;31595;51.418;7.572;2023-02-18T09:31:45;100520.94;;;12.21;66.91
45888;BME280;31595;51.418;7.572;2023-02-18T09:34:12;100517.16;;;12.17;66.86
45888;BME280;31595;51.418;7.572;2023-02-18T09:36:41;100518.47;;;12.19;67.01
45888;BME280;31595;51.418;7.572;2023-02-18T09:39:08;100517.66;;;12.19;66.88
45888;BME280;31595;51.418;7.572;2023-02-18T09:41:40;100530.97;;;12.22;67.34
45888;BME280;31595;51.418;7.572;2023-02-18T09:44:12;100524.00;;;12.02;67.58
45888;BME280;31595;51.418;7.572;2023-02-18T09:46:47;100515.94;;;12.01;68.02
45888;BME280;31595;51.418;7.572;2023-02-18T09:49:17;100523.31;;;11.96;67.60
45888;BME280;31595;51.418;7.572;2023-02-18T09:51:48;100526.94;;;11.97;67.86
45888;BME280;31595;51.418;7.572;2023-02-18T09:54:17;100519.72;;;11.96;67.79
45888;BME280;31595;51.418;7.572;2023-02-18T09:56:45;100518.22;;;11.98;67.98
45888;BME280;31595;51.418;7.572;2023-02-18T09:59:16;100500.84;;;12.02;67.51
45888;BME280;31595;51.418;7.572;2023-02-18T10:01:46;100492.72;;;11.83;67.20
45888;BME280;31595;51.418;7.572;2023-02-18T10:04:19;100494.34;;;11.84;67.47
45888;BME280;31595;51.418;7.572;2023-02-18T10:06:51;100484.56;;;11.95;67.38
45888;BME280;31595;51.418;7.572;2023-02-18T10:09:21;100487.88;;;11.97;67.81
45888;BME280;31595;51.418;7.572;2023-02-18T10:11:51;100496.88;;;11.94;67.41
45888;BME280;31595;51.418;7.572;2023-02-18T10:14:19;100497.75;;;11.72;68.36
45888;BME280;31595;51.418;7.572;2023-02-18T10:16:48;100503.78;;;11.96;67.94
45888;BME280;31595;51.418;7.572;2023-02-18T10:19:21;100525.16;;;12.01;67.61
45888;BME280;31595;51.418;7.572;2023-02-18T10:21:52;100522.91;;;11.81;69.12
45888;BME280;31595;51.418;7.572;2023-02-18T10:24:27;100521.66;;;11.64;71.00
45888;BME280;31595;51.418;7.572;2023-02-18T10:26:56;100506.06;;;11.63;71.07
45888;BME280;31595;51.418;7.572;2023-02-18T10:29:24;100502.50;;;11.71;70.87
45888;BME280;31595;51.418;7.572;2023-02-18T10:31:55;100500.63;;;11.89;71.14
45888;BME280;31595;51.418;7.572;2023-02-18T10:34:32;100515.41;;;11.90;71.07
45888;BME280;31595;51.418;7.572;2023-02-18T10:37:07;100514.31;;;11.68;71.53
45888;BME280;31595;51.418;7.572;2023-02-18T10:39:47;100508.81;;;11.54;73.00
45888;BME280;31595;51.418;7.572;2023-02-18T10:42:29;100523.00;;;11.67;73.35
45888;BME280;31595;51.418;7.572;2023-02-18T10:45:07;100525.81;;;11.75;73.34
45888;BME280;31595;51.418;7.572;2023-02-18T10:47:44;100515.59;;;11.62;73.59
45888;BME280;31595;51.418;7.572;2023-02-18T10:50:24;100517.69;;;11.56;72.86
45888;BME280;31595;51.418;7.572;2023-02-18T10:52:55;100520.00;;;11.63;73.65
45888;BME280;31595;51.418;7.572;2023-02-18T10:55:37;100524.78;;;11.63;72.75
45888;BME280;31595;51.418;7.572;2023-02-18T10:58:24;100524.53;;;11.82;72.90
45888;BME280;31595;51.418;7.572;2023-02-18T11:00:51;100516.00;;;11.78;73.20
45888;BME280;31595;51.418;7.572;2023-02-18T11:03:21;100522.38;;;11.70;73.12
45888;BME280;31595;51.418;7.572;2023-02-18T11:05:50;100531.91;;;11.77;73.45
45888;BME280;31595;51.418;7.572;2023-02-18T11:08:23;100529.22;;;11.64;74.12
45888;BME280;31595;51.418;7.572;2023-02-18T11:10:51;100527.78;;;11.75;74.04
45888;BME280;31595;51.418;7.572;2023-02-18T11:13:24;100543.63;;;11.57;75.10
45888;BME280;31595;51.418;7.572;2023-02-18T11:15:59;100520.66;;;11.60;75.08
45888;BME280;31595;51.418;7.572;2023-02-18T11:18:36;100532.59;;;11.52;75.97
45888;BME280;31595;51.418;7.572;2023-02-18T11:21:05;100553.28;;;11.51;75.85
45888;BME280;31595;51.418;7.572;2023-02-18T11:23:47;100550.94;;;11.75;75.71
45888;BME280;31595;51.418;7.572;2023-02-18T11:26:16;100538.34;;;11.78;75.66
45888;BME280;31595;51.418;7.572;2023-02-18T11:28:50;100540.22;;;11.91;75.57
45888;BME280;31595;51.418;7.572;2023-02-18T11:31:25;100541.69;;;11.89;75.64
45888;BME280;31595;51.418;7.572;2023-02-18T11:33:54;100531.75;;;11.74;74.96
45888;BME280;31595;51.418;7.572;2023-02-18T11:36:24;100525.81;;;11.75;75.21
45888;BME280;31595;51.418;7.572;2023-02-18T11:38:56;100531.69;;;11.65;74.92
45888;BME280;31595;51.418;7.572;2023-02-18T11:41:39;100523.47;;;11.60;75.42
45888;BME280;31595;51.418;7.572;2023-02-18T11:44:18;100527.25;;;11.64;75.79
45888;BME280;31595;51.418;7.572;2023-02-18T11:46:56;100521.94;;;11.85;75.84
45888;BME280;31595;51.418;7.572;2023-02-18T11:49:24;100522.97;;;11.89;75.45
45888;BME280;31595;51.418;7.572;2023-02-18T11:51:52;100526.31;;;11.77;76.09
45888;BME280;31595;51.418;7.572;2023-02-18T11:54:26;100528.28;;;12.08;75.11
45888;BME280;31595;51.418;7.572;2023-02-18T11:56:56;100528.75;;;11.93;75.31
45888;BME280;31595;51.418;7.572;2023-02-18T11:59:25;100532.78;;;11.87;75.01
45888;BME280;31595;51.418;7.572;2023-02-18T12:01:58;100517.81;;;11.83;75.52
45888;BME280;31595;51.418;7.572;2023-02-18T12:04:35;100526.66;;;11.76;75.35
45888;BME280;31595;51.418;7.572;2023-02-18T12:07:11;100536.63;;;11.68;75.62
45888;BME280;31595;51.418;7.572;2023-02-18T12:09:46;100520.34;;;11.62;75.92
45888;BME280;31595;51.418;7.572;2023-02-18T12:12:16;100530.03;;;11.64;76.42
45888;BME280;31595;51.418;7.572;2023-02-18T12:14:45;100519.78;;;11.82;75.78
45888;BME280;31595;51.418;7.572;2023-02-18T12:17:33;100534.88;;;11.81;75.44
45888;BME280;31595;51.418;7.572;2023-02-18T12:20:14;100536.69;;;11.86;75.98
45888;BME280;31595;51.418;7.572;2023-02-18T12:22:53;100533.66;;;11.96;75.31
45888;BME280;31595;51.418;7.572;2023-02-18T12:25:39;100533.81;;;11.91;75.68
45888;BME280;31595;51.418;7.572;2023-02-18T12:28:31;100524.31;;;12.01;75.77
45888;BME280;31595;51.418;7.572;2023-02-18T12:31:16;100533.34;;;11.97;75.21
45888;BME280;31595;51.418;7.572;2023-02-18T12:33:57;100521.72;;;12.04;75.30
45888;BME280;31595;51.418;7.572;2023-02-18T12:36:40;100527.75;;;11.97;75.04
45888;BME280;31595;51.418;7.572;2023-02-18T12:39:16;100521.38;;;11.97;74.65
45888;BME280;31595;51.418;7.572;2023-02-18T12:41:55;100525.97;;;12.02;74.73
45888;BME280;31595;51.418;7.572;2023-02-18T12:44:33;100522.84;;;12.03;75.14
45888;BME280;31595;51.418;7.572;2023-02-18T12:47:29;100529.13;;;12.17;75.33
45888;BME280;31595;51.418;7.572;2023-02-18T12:50:24;100532.63;;;12.32;75.25
45888;BME280;31595;51.418;7.572;2023-02-18T12:53:06;100525.91;;;12.33;74.64
45888;BME280;31595;51.418;7.572;2023-02-18T12:55:49;100533.00;;;12.39;74.43
45888;BME280;31595;51.418;7.572;2023-02-18T12:58:31;100521.84;;;12.48;74.50
45888;BME280;31595;51.418;7.572;2023-02-18T13:01:11;100542.03;;;12.45;73.93
45888;BME280;31595;51.418;7.572;2023-02-18T13:03:58;100539.22;;;12.45;73.78
45888;BME280;31595;51.418;7.572;2023-02-18T13:06:41;100540.03;;;12.36;73.60
45888;BME280;31595;51.418;7.572;2023-02-18T13:09:22;100529.34;;;12.30;74.39
45888;BME280;31595;51.418;7.572;2023-02-18T13:11:53;100537.41;;;12.31;74.10
45888;BME280;31595;51.418;7.572;2023-02-18T13:14:29;100522.44;;;12.36;73.70
45888;BME280;31595;51.418;7.572;2023-02-18T13:16:59;100532.28;;;12.25;73.81